sensor_id;sensor_type;location;lat;lon;timestamp;temperature;humidity
64638;HTU21D;51049;45.046;38.950;2023-07-24T00:01:23;23.73;73.03
64638;HTU21D;51049;45.046;38.950;2023-07-24T00:03:49;23.74;73.02
64638;HTU21D;51049;45.046;38.950;2023-07-24T00:06:15;23.76;72.87
64638;HTU21D;51049;45.046;38.950;2023-07-24T00:08:41;23.79;72.79
64638;HTU21D;51049;45.046;38.950;2023-07-24T00:11:08;23.79;72.81
64638;HTU21D;51049;45.046;38.950;2023-07-24T00:13:34;23.80;72.79
64638;HTU21D;51049;45.046;38.950;2023-07-24T00:15:59;23.79;72.80
64638;HTU21D;51049;45.046;38.950;2023-07-24T00:18:25;23.80;72.78
64638;HTU21D;51049;45.046;38.950;2023-07-24T00:20:51;23.79;72.84
64638;HTU21D;51049;45.046;38.950;2023-07-24T00:23:17;23.75;73.15
64638;HTU21D;51049;45.046;38.950;2023-07-24T00:25:43;23.73;73.19
64638;HTU21D;51049;45.046;38.950;2023-07-24T00:28:09;23.72;73.39
64638;HTU21D;51049;45.046;38.950;2023-07-24T00:30:37;23.70;73.41
64638;HTU21D;51049;45.046;38.950;2023-07-24T00:33:03;23.68;73.43
64638;HTU21D;51049;45.046;38.950;2023-07-24T00:35:29;23.66;73.51
64638;HTU21D;51049;45.046;38.950;2023-07-24T00:37:55;23.61;73.61
64638;HTU21D;51049;45.046;38.950;2023-07-24T00:40:21;23.58;73.73
64638;HTU21D;51049;45.046;38.950;2023-07-24T00:42:48;23.58;73.81
64638;HTU21D;51049;45.046;38.950;2023-07-24T00:45:14;23.55;73.84
64638;HTU21D;51049;45.046;38.950;2023-07-24T00:47:41;23.53;73.90
64638;HTU21D;51049;45.046;38.950;2023-07-24T00:50:09;23.49;73.96
64638;HTU21D;51049;45.046;38.950;2023-07-24T00:52:36;23.49;74.07
64638;HTU21D;51049;45.046;38.950;2023-07-24T00:55:02;23.45;74.16
64638;HTU21D;51049;45.046;38.950;2023-07-24T00:57:29;23.45;74.29
64638;HTU21D;51049;45.046;38.950;2023-07-24T00:59:55;23.44;74.44
64638;HTU21D;51049;45.046;38.950;2023-07-24T01:02:22;23.44;74.51
64638;HTU21D;51049;45.046;38.950;2023-07-24T01:04:48;23.42;74.57
64638;HTU21D;51049;45.046;38.950;2023-07-24T01:07:14;23.41;74.69
64638;HTU21D;51049;45.046;38.950;2023-07-24T01:09:42;23.41;74.95
64638;HTU21D;51049;45.046;38.950;2023-07-24T01:12:14;23.38;75.03
64638;HTU21D;51049;45.046;38.950;2023-07-24T01:14:52;23.37;75.12
64638;HTU21D;51049;45.046;38.950;2023-07-24T01:17:24;23.35;75.12
64638;HTU21D;51049;45.046;38.950;2023-07-24T01:19:58;23.35;75.13
64638;HTU21D;51049;45.046;38.950;2023-07-24T01:22:39;23.35;75.05
64638;HTU21D;51049;45.046;38.950;2023-07-24T01:25:18;23.36;75.04
64638;HTU21D;51049;45.046;38.950;2023-07-24T01:27:48;23.34;75.09
64638;HTU21D;51049;45.046;38.950;2023-07-24T01:30:17;23.34;75.26
64638;HTU21D;51049;45.046;38.950;2023-07-24T01:32:44;23.34;75.28
64638;HTU21D;51049;45.046;38.950;2023-07-24T01:35:10;23.32;75.34
64638;HTU21D;51049;45.046;38.950;2023-07-24T01:37:37;23.34;75.41
64638;HTU21D;51049;45.046;38.950;2023-07-24T01:40:09;23.35;75.45
64638;HTU21D;51049;45.046;38.950;2023-07-24T01:42:36;23.35;75.49
64638;HTU21D;51049;45.046;38.950;2023-07-24T01:45:04;23.35;75.55
64638;HTU21D;51049;45.046;38.950;2023-07-24T01:47:30;23.36;75.57
64638;HTU21D;51049;45.046;38.950;2023-07-24T01:49:56;23.36;75.67
64638;HTU21D;51049;45.046;38.950;2023-07-24T01:52:22;23.35;75.67
64638;HTU21D;51049;45.046;38.950;2023-07-24T01:54:48;23.35;75.73
64638;HTU21D;51049;45.046;38.950;2023-07-24T01:57:14;23.32;75.87
64638;HTU21D;51049;45.046;38.950;2023-07-24T01:59:40;23.34;75.86
64638;HTU21D;51049;45.046;38.950;2023-07-24T02:02:06;23.32;75.91
64638;HTU21D;51049;45.046;38.950;2023-07-24T02:04:32;23.32;75.95
64638;HTU21D;51049;45.046;38.950;2023-07-24T02:06:58;23.34;76.00
64638;HTU21D;51049;45.046;38.950;2023-07-24T02:09:24;23.32;75.97
64638;HTU21D;51049;45.046;38.950;2023-07-24T02:11:50;23.31;75.96
64638;HTU21D;51049;45.046;38.950;2023-07-24T02:14:17;23.30;76.06
64638;HTU21D;51049;45.046;38.950;2023-07-24T02:16:43;23.31;75.99
64638;HTU21D;51049;45.046;38.950;2023-07-24T02:19:09;23.27;76.19
64638;HTU21D;51049;45.046;38.950;2023-07-24T02:21:35;23.25;76.31
64638;HTU21D;51049;45.046;38.950;2023-07-24T02:24:01;23.24;76.40
64638;HTU21D;51049;45.046;38.950;2023-07-24T02:26:30;23.22;76.42
64638;HTU21D;51049;45.046;38.950;2023-07-24T02:28:56;23.23;76.54
64638;HTU21D;51049;45.046;38.950;2023-07-24T02:31:22;23.21;76.64
64638;HTU21D;51049;45.046;38.950;2023-07-24T02:33:48;23.20;76.68
64638;HTU21D;51049;45.046;38.950;2023-07-24T02:36:15;23.21;76.69
64638;HTU21D;51049;45.046;38.950;2023-07-24T02:38:41;23.20;76.75
64638;HTU21D;51049;45.046;38.950;2023-07-24T02:41:06;23.21;76.76
64638;HTU21D;51049;45.046;38.950;2023-07-24T02:43:35;23.23;76.78
64638;HTU21D;51049;45.046;38.950;2023-07-24T02:46:01;23.23;76.77
64638;HTU21D;51049;45.046;38.950;2023-07-24T02:48:28;23.24;76.74
64638;HTU21D;51049;45.046;38.950;2023-07-24T02:50:54;23.25;76.71
64638;HTU21D;51049;45.046;38.950;2023-07-24T02:53:20;23.27;76.77
64638;HTU21D;51049;45.046;38.950;2023-07-24T02:55:46;23.29;76.70
64638;HTU21D;51049;45.046;38.950;2023-07-24T02:58:13;23.31;76.68
64638;HTU21D;51049;45.046;38.950;2023-07-24T03:00:39;23.32;76.66
64638;HTU21D;51049;45.046;38.950;2023-07-24T03:03:05;23.31;76.54
64638;HTU21D;51049;45.046;38.950;2023-07-24T03:05:34;23.32;76.50
64638;HTU21D;51049;45.046;38.950;2023-07-24T03:08:00;23.32;76.43
64638;HTU21D;51049;45.046;38.950;2023-07-24T03:10:26;23.34;76.34
64638;HTU21D;51049;45.046;38.950;2023-07-24T03:12:52;23.35;76.21
64638;HTU21D;51049;45.046;38.950;2023-07-24T03:15:18;23.36;76.08
64638;HTU21D;51049;45.046;38.950;2023-07-24T03:17:44;23.40;75.89
64638;HTU21D;51049;45.046;38.950;2023-07-24T03:20:15;23.44;75.66
64638;HTU21D;51049;45.046;38.950;2023-07-24T03:22:42;23.47;75.48
64638;HTU21D;51049;45.046;38.950;2023-07-24T03:25:08;23.51;75.38
64638;HTU21D;51049;45.046;38.950;2023-07-24T03:27:34;23.55;75.25
64638;HTU21D;51049;45.046;38.950;2023-07-24T03:30:00;23.59;75.08
64638;HTU21D;51049;45.046;38.950;2023-07-24T03:32:26;23.65;74.88
64638;HTU21D;51049;45.046;38.950;2023-07-24T03:34:53;23.71;74.72
64638;HTU21D;51049;45.046;38.950;2023-07-24T03:37:19;23.76;74.54
64638;HTU21D;51049;45.046;38.950;2023-07-24T03:39:45;23.83;74.37
64638;HTU21D;51049;45.046;38.950;2023-07-24T03:42:11;23.87;74.22
64638;HTU21D;51049;45.046;38.950;2023-07-24T03:44:41;23.94;74.06
64638;HTU21D;51049;45.046;38.950;2023-07-24T03:47:07;23.96;73.93
64638;HTU21D;51049;45.046;38.950;2023-07-24T03:49:34;24.00;73.80
64638;HTU21D;51049;45.046;38.950;2023-07-24T03:52:00;24.03;73.73
64638;HTU21D;51049;45.046;38.950;2023-07-24T03:54:26;24.10;73.62
64638;HTU21D;51049;45.046;38.950;2023-07-24T03:56:51;24.18;73.36
64638;HTU21D;51049;45.046;38.950;2023-07-24T03:59:17;24.27;73.20
64638;HTU21D;51049;45.046;38.950;2023-07-24T04:01:43;24.35;72.94
64638;HTU21D;51049;45.046;38.950;2023-07-24T04:04:09;24.43;72.72
64638;HTU21D;51049;45.046;38.950;2023-07-24T04:06:35;24.47;72.37
64638;HTU21D;51049;45.046;38.950;2023-07-24T04:09:01;24.49;72.19
64638;HTU21D;51049;45.046;38.950;2023-07-24T04:11:27;24.51;71.99
64638;HTU21D;51049;45.046;38.950;2023-07-24T04:13:53;24.51;71.83
64638;HTU21D;51049;45.046;38.950;2023-07-24T04:16:19;24.53;71.64
64638;HTU21D;51049;45.046;38.950;2023-07-24T04:18:45;24.54;71.51
64638;HTU21D;51049;45.046;38.950;2023-07-24T04:21:11;24.56;71.31
64638;HTU21D;51049;45.046;38.950;2023-07-24T04:23:37;24.53;71.13
64638;HTU21D;51049;45.046;38.950;2023-07-24T04:26:03;24.50;71.08
64638;HTU21D;51049;45.046;38.950;2023-07-24T04:28:28;24.45;71.03
64638;HTU21D;51049;45.046;38.950;2023-07-24T04:30:55;24.43;70.99
64638;HTU21D;51049;45.046;38.950;2023-07-24T04:33:20;24.41;70.96
64638;HTU21D;51049;45.046;38.950;2023-07-24T04:35:49;24.40;70.97
64638;HTU21D;51049;45.046;38.950;2023-07-24T04:38:15;24.41;70.95
64638;HTU21D;51049;45.046;38.950;2023-07-24T04:40:44;24.39;70.90
64638;HTU21D;51049;45.046;38.950;2023-07-24T04:43:10;24.36;70.83
64638;HTU21D;51049;45.046;38.950;2023-07-24T04:45:36;24.32;70.83
64638;HTU21D;51049;45.046;38.950;2023-07-24T04:48:02;24.29;70.85
64638;HTU21D;51049;45.046;38.950;2023-07-24T04:50:28;24.29;70.81
64638;HTU21D;51049;45.046;38.950;2023-07-24T04:52:55;24.28;70.68
64638;HTU21D;51049;45.046;38.950;2023-07-24T04:55:21;24.27;70.52
64638;HTU21D;51049;45.046;38.950;2023-07-24T04:57:48;24.27;70.45
64638;HTU21D;51049;45.046;38.950;2023-07-24T05:00:14;24.29;70.35
64638;HTU21D;51049;45.046;38.950;2023-07-24T05:02:40;24.33;70.23
64638;HTU21D;51049;45.046;38.950;2023-07-24T05:05:06;24.38;70.03
64638;HTU21D;51049;45.046;38.950;2023-07-24T05:07:32;24.40;69.84
64638;HTU21D;51049;45.046;38.950;2023-07-24T05:09:59;24.44;69.78
64638;HTU21D;51049;45.046;38.950;2023-07-24T05:12:25;24.54;69.70
64638;HTU21D;51049;45.046;38.950;2023-07-24T05:14:50;24.68;69.55
64638;HTU21D;51049;45.046;38.950;2023-07-24T05:17:16;24.82;69.24
64638;HTU21D;51049;45.046;38.950;2023-07-24T05:19:42;24.94;68.72
64638;HTU21D;51049;45.046;38.950;2023-07-24T05:22:08;25.06;68.39
64638;HTU21D;51049;45.046;38.950;2023-07-24T05:24:38;25.22;68.03
64638;HTU21D;51049;45.046;38.950;2023-07-24T05:27:05;25.34;67.52
64638;HTU21D;51049;45.046;38.950;2023-07-24T05:29:31;25.46;67.13
64638;HTU21D;51049;45.046;38.950;2023-07-24T05:31:57;25.57;66.69
64638;HTU21D;51049;45.046;38.950;2023-07-24T05:34:25;25.66;66.51
64638;HTU21D;51049;45.046;38.950;2023-07-24T05:36:51;25.72;66.29
64638;HTU21D;51049;45.046;38.950;2023-07-24T05:39:17;25.84;65.95
64638;HTU21D;51049;45.046;38.950;2023-07-24T05:41:43;25.97;65.53
64638;HTU21D;51049;45.046;38.950;2023-07-24T05:44:09;26.13;65.19
64638;HTU21D;51049;45.046;38.950;2023-07-24T05:46:35;26.35;64.88
64638;HTU21D;51049;45.046;38.950;2023-07-24T05:49:01;26.52;64.36
64638;HTU21D;51049;45.046;38.950;2023-07-24T05:51:27;26.64;63.86
64638;HTU21D;51049;45.046;38.950;2023-07-24T05:53:53;26.73;63.62
64638;HTU21D;51049;45.046;38.950;2023-07-24T05:56:19;26.73;62.94
64638;HTU21D;51049;45.046;38.950;2023-07-24T05:58:45;26.68;62.81
64638;HTU21D;51049;45.046;38.950;2023-07-24T06:01:11;26.64;62.78
64638;HTU21D;51049;45.046;38.950;2023-07-24T06:03:37;26.67;62.73
64638;HTU21D;51049;45.046;38.950;2023-07-24T06:06:06;26.68;62.63
64638;HTU21D;51049;45.046;38.950;2023-07-24T06:08:32;26.69;62.50
64638;HTU21D;51049;45.046;38.950;2023-07-24T06:10:58;26.68;62.24
64638;HTU21D;51049;45.046;38.950;2023-07-24T06:13:24;26.66;62.05
64638;HTU21D;51049;45.046;38.950;2023-07-24T06:15:51;26.66;61.89
64638;HTU21D;51049;45.046;38.950;2023-07-24T06:18:18;26.68;61.88
64638;HTU21D;51049;45.046;38.950;2023-07-24T06:20:44;26.72;61.81
64638;HTU21D;51049;45.046;38.950;2023-07-24T06:23:10;26.78;61.56
64638;HTU21D;51049;45.046;38.950;2023-07-24T06:25:36;26.82;61.33
64638;HTU21D;51049;45.046;38.950;2023-07-24T06:28:02;26.86;61.08
64638;HTU21D;51049;45.046;38.950;2023-07-24T06:30:28;26.85;60.78
64638;HTU21D;51049;45.046;38.950;2023-07-24T06:32:54;26.84;60.72
64638;HTU21D;51049;45.046;38.950;2023-07-24T06:35:20;26.87;60.83
64638;HTU21D;51049;45.046;38.950;2023-07-24T06:37:46;26.95;60.54
64638;HTU21D;51049;45.046;38.950;2023-07-24T06:40:12;26.97;60.38
64638;HTU21D;51049;45.046;38.950;2023-07-24T06:42:38;26.97;60.25
64638;HTU21D;51049;45.046;38.950;2023-07-24T06:45:04;26.98;60.06
64638;HTU21D;51049;45.046;38.950;2023-07-24T06:47:30;26.98;59.93
64638;HTU21D;51049;45.046;38.950;2023-07-24T06:49:56;27.02;59.90
64638;HTU21D;51049;45.046;38.950;2023-07-24T06:52:24;27.08;59.70
64638;HTU21D;51049;45.046;38.950;2023-07-24T06:54:49;27.12;59.21
64638;HTU21D;51049;45.046;38.950;2023-07-24T06:57:15;27.12;58.79
64638;HTU21D;51049;45.046;38.950;2023-07-24T06:59:41;27.15;58.75
64638;HTU21D;51049;45.046;38.950;2023-07-24T07:02:08;27.24;58.51
64638;HTU21D;51049;45.046;38.950;2023-07-24T07:04:34;27.30;58.35
64638;HTU21D;51049;45.046;38.950;2023-07-24T07:06:59;27.40;58.13
64638;HTU21D;51049;45.046;38.950;2023-07-24T07:09:25;27.51;57.87
64638;HTU21D;51049;45.046;38.950;2023-07-24T07:11:51;27.63;57.50
64638;HTU21D;51049;45.046;38.950;2023-07-24T07:14:17;27.71;57.26
64638;HTU21D;51049;45.046;38.950;2023-07-24T07:16:43;27.76;57.19
64638;HTU21D;51049;45.046;38.950;2023-07-24T07:19:10;27.83;56.68
64638;HTU21D;51049;45.046;38.950;2023-07-24T07:21:36;28.02;56.60
64638;HTU21D;51049;45.046;38.950;2023-07-24T07:24:01;28.03;56.42
64638;HTU21D;51049;45.046;38.950;2023-07-24T07:26:27;28.04;56.04
64638;HTU21D;51049;45.046;38.950;2023-07-24T07:28:55;28.01;56.10
64638;HTU21D;51049;45.046;38.950;2023-07-24T07:31:21;28.00;55.90
64638;HTU21D;51049;45.046;38.950;2023-07-24T07:33:47;27.99;55.74
64638;HTU21D;51049;45.046;38.950;2023-07-24T07:36:14;28.00;55.73
64638;HTU21D;51049;45.046;38.950;2023-07-24T07:38:40;28.14;55.56
64638;HTU21D;51049;45.046;38.950;2023-07-24T07:41:06;28.38;55.00
64638;HTU21D;51049;45.046;38.950;2023-07-24T07:43:32;28.57;54.20
64638;HTU21D;51049;45.046;38.950;2023-07-24T07:45:58;28.75;53.84
64638;HTU21D;51049;45.046;38.950;2023-07-24T07:48:25;28.99;53.26
64638;HTU21D;51049;45.046;38.950;2023-07-24T07:50:51;29.27;52.57
64638;HTU21D;51049;45.046;38.950;2023-07-24T07:53:17;29.56;51.73
64638;HTU21D;51049;45.046;38.950;2023-07-24T07:55:43;29.71;51.12
64638;HTU21D;51049;45.046;38.950;2023-07-24T07:58:09;29.77;50.92
64638;HTU21D;51049;45.046;38.950;2023-07-24T08:00:35;29.65;50.79
64638;HTU21D;51049;45.046;38.950;2023-07-24T08:03:01;29.41;50.76
64638;HTU21D;51049;45.046;38.950;2023-07-24T08:05:27;29.23;50.97
64638;HTU21D;51049;45.046;38.950;2023-07-24T08:07:53;29.08;50.79
64638;HTU21D;51049;45.046;38.950;2023-07-24T08:10:19;29.08;50.44
64638;HTU21D;51049;45.046;38.950;2023-07-24T08:12:45;29.12;50.00
64638;HTU21D;51049;45.046;38.950;2023-07-24T08:15:11;29.19;49.92
64638;HTU21D;51049;45.046;38.950;2023-07-24T08:17:38;29.30;49.74
64638;HTU21D;51049;45.046;38.950;2023-07-24T08:20:04;29.44;49.41
64638;HTU21D;51049;45.046;38.950;2023-07-24T08:22:30;29.57;49.27
64638;HTU21D;51049;45.046;38.950;2023-07-24T08:24:56;29.65;48.86
64638;HTU21D;51049;45.046;38.950;2023-07-24T08:27:22;29.83;48.83
64638;HTU21D;51049;45.046;38.950;2023-07-24T08:29:51;30.08;48.70
64638;HTU21D;51049;45.046;38.950;2023-07-24T08:32:18;30.19;48.18
64638;HTU21D;51049;45.046;38.950;2023-07-24T08:34:44;30.07;48.30
64638;HTU21D;51049;45.046;38.950;2023-07-24T08:37:11;30.00;48.39
64638;HTU21D;51049;45.046;38.950;2023-07-24T08:39:37;29.94;48.42
64638;HTU21D;51049;45.046;38.950;2023-07-24T08:42:13;29.94;48.28
64638;HTU21D;51049;45.046;38.950;2023-07-24T08:44:40;29.91;48.08
64638;HTU21D;51049;45.046;38.950;2023-07-24T08:47:10;29.96;48.08
64638;HTU21D;51049;45.046;38.950;2023-07-24T08:49:38;30.11;47.65
64638;HTU21D;51049;45.046;38.950;2023-07-24T08:52:08;30.27;47.61
64638;HTU21D;51049;45.046;38.950;2023-07-24T08:54:38;30.32;47.45
64638;HTU21D;51049;45.046;38.950;2023-07-24T08:57:06;30.24;47.07
64638;HTU21D;51049;45.046;38.950;2023-07-24T08:59:33;30.20;47.22
64638;HTU21D;51049;45.046;38.950;2023-07-24T09:02:00;30.28;47.08
64638;HTU21D;51049;45.046;38.950;2023-07-24T09:04:26;30.38;46.96
64638;HTU21D;51049;45.046;38.950;2023-07-24T09:06:53;30.51;46.54
64638;HTU21D;51049;45.046;38.950;2023-07-24T09:09:19;30.57;46.33
64638;HTU21D;51049;45.046;38.950;2023-07-24T09:11:52;30.60;46.38
64638;HTU21D;51049;45.046;38.950;2023-07-24T09:14:27;30.54;46.28
64638;HTU21D;51049;45.046;38.950;2023-07-24T09:17:07;30.51;46.22
64638;HTU21D;51049;45.046;38.950;2023-07-24T09:19:34;30.50;46.15
64638;HTU21D;51049;45.046;38.950;2023-07-24T09:22:13;30.47;45.67
64638;HTU21D;51049;45.046;38.950;2023-07-24T09:24:50;30.34;45.67
64638;HTU21D;51049;45.046;38.950;2023-07-24T09:27:17;30.33;45.20
64638;HTU21D;51049;45.046;38.950;2023-07-24T09:29:44;30.44;44.30
64638;HTU21D;51049;45.046;38.950;2023-07-24T09:34:46;30.74;43.67
64638;HTU21D;51049;45.046;38.950;2023-07-24T09:37:43;30.80;43.81
64638;HTU21D;51049;45.046;38.950;2023-07-24T09:40:09;30.69;44.00
64638;HTU21D;51049;45.046;38.950;2023-07-24T09:42:37;30.67;43.68
64638;HTU21D;51049;45.046;38.950;2023-07-24T09:45:04;30.77;43.45
64638;HTU21D;51049;45.046;38.950;2023-07-24T09:47:31;30.91;42.71
64638;HTU21D;51049;45.046;38.950;2023-07-24T09:49:59;31.10;42.66
64638;HTU21D;51049;45.046;38.950;2023-07-24T09:52:27;31.28;41.95
64638;HTU21D;51049;45.046;38.950;2023-07-24T09:57:28;31.35;41.24
64638;HTU21D;51049;45.046;38.950;2023-07-24T09:59:56;31.37;40.97
64638;HTU21D;51049;45.046;38.950;2023-07-24T10:02:23;31.41;41.19
64638;HTU21D;51049;45.046;38.950;2023-07-24T10:04:50;31.56;41.02
64638;HTU21D;51049;45.046;38.950;2023-07-24T10:07:16;31.72;40.99
64638;HTU21D;51049;45.046;38.950;2023-07-24T10:09:47;31.81;40.80
64638;HTU21D;51049;45.046;38.950;2023-07-24T10:12:14;31.79;40.75
64638;HTU21D;51049;45.046;38.950;2023-07-24T10:14:42;31.83;40.99
64638;HTU21D;51049;45.046;38.950;2023-07-24T10:17:09;31.90;40.40
64638;HTU21D;51049;45.046;38.950;2023-07-24T10:19:42;31.97;40.53
64638;HTU21D;51049;45.046;38.950;2023-07-24T10:22:18;32.17;40.67
64638;HTU21D;51049;45.046;38.950;2023-07-24T10:24:46;32.39;40.17
64638;HTU21D;51049;45.046;38.950;2023-07-24T10:27:12;32.55;39.75
64638;HTU21D;51049;45.046;38.950;2023-07-24T10:29:38;32.59;39.54
64638;HTU21D;51049;45.046;38.950;2023-07-24T10:32:17;32.60;39.57
64638;HTU21D;51049;45.046;38.950;2023-07-24T10:34:44;32.63;39.23
64638;HTU21D;51049;45.046;38.950;2023-07-24T10:37:10;32.60;38.88
64638;HTU21D;51049;45.046;38.950;2023-07-24T10:39:40;32.68;38.97
64638;HTU21D;51049;45.046;38.950;2023-07-24T10:42:08;32.92;39.23
64638;HTU21D;51049;45.046;38.950;2023-07-24T10:44:34;33.12;38.72
64638;HTU21D;51049;45.046;38.950;2023-07-24T10:47:01;33.19;38.47
64638;HTU21D;51049;45.046;38.950;2023-07-24T10:49:27;33.22;38.53
64638;HTU21D;51049;45.046;38.950;2023-07-24T10:51:59;33.23;38.24
64638;HTU21D;51049;45.046;38.950;2023-07-24T10:54:25;33.17;38.02
64638;HTU21D;51049;45.046;38.950;2023-07-24T10:56:58;33.12;37.15
64638;HTU21D;51049;45.046;38.950;2023-07-24T10:59:37;33.17;37.61
64638;HTU21D;51049;45.046;38.950;2023-07-24T11:02:04;33.35;37.43
64638;HTU21D;51049;45.046;38.950;2023-07-24T11:04:30;33.37;37.27
64638;HTU21D;51049;45.046;38.950;2023-07-24T11:06:56;33.31;37.37
64638;HTU21D;51049;45.046;38.950;2023-07-24T11:09:34;33.18;37.63
64638;HTU21D;51049;45.046;38.950;2023-07-24T11:12:00;32.90;37.27
64638;HTU21D;51049;45.046;38.950;2023-07-24T11:14:34;32.57;37.93
64638;HTU21D;51049;45.046;38.950;2023-07-24T11:17:00;32.47;38.10
64638;HTU21D;51049;45.046;38.950;2023-07-24T11:19:26;32.56;37.82
64638;HTU21D;51049;45.046;38.950;2023-07-24T11:21:52;32.67;37.53
64638;HTU21D;51049;45.046;38.950;2023-07-24T11:24:18;32.74;37.24
64638;HTU21D;51049;45.046;38.950;2023-07-24T11:26:44;32.68;37.33
64638;HTU21D;51049;45.046;38.950;2023-07-24T11:29:13;32.57;37.57
64638;HTU21D;51049;45.046;38.950;2023-07-24T11:31:39;32.38;37.28
64638;HTU21D;51049;45.046;38.950;2023-07-24T11:34:05;32.09;37.79
64638;HTU21D;51049;45.046;38.950;2023-07-24T11:36:32;31.85;38.17
64638;HTU21D;51049;45.046;38.950;2023-07-24T11:38:58;31.63;38.59
64638;HTU21D;51049;45.046;38.950;2023-07-24T11:41:25;31.49;38.78
64638;HTU21D;51049;45.046;38.950;2023-07-24T11:43:51;31.40;38.96
64638;HTU21D;51049;45.046;38.950;2023-07-24T11:46:25;31.28;39.04
64638;HTU21D;51049;45.046;38.950;2023-07-24T11:48:51;31.16;39.20
64638;HTU21D;51049;45.046;38.950;2023-07-24T11:51:23;31.15;39.38
64638;HTU21D;51049;45.046;38.950;2023-07-24T11:53:51;31.18;39.32
64638;HTU21D;51049;45.046;38.950;2023-07-24T11:56:19;31.15;39.36
64638;HTU21D;51049;45.046;38.950;2023-07-24T11:58:45;31.12;39.35
64638;HTU21D;51049;45.046;38.950;2023-07-24T12:01:14;31.21;39.19
64638;HTU21D;51049;45.046;38.950;2023-07-24T12:03:40;31.58;38.57
64638;HTU21D;51049;45.046;38.950;2023-07-24T12:06:14;31.69;38.11
64638;HTU21D;51049;45.046;38.950;2023-07-24T12:08:41;31.87;37.94
64638;HTU21D;51049;45.046;38.950;2023-07-24T12:11:16;32.07;37.63
64638;HTU21D;51049;45.046;38.950;2023-07-24T12:13:43;31.95;37.80
64638;HTU21D;51049;45.046;38.950;2023-07-24T12:16:09;31.99;37.88
64638;HTU21D;51049;45.046;38.950;2023-07-24T12:18:35;32.09;37.59
64638;HTU21D;51049;45.046;38.950;2023-07-24T12:21:01;32.19;37.74
64638;HTU21D;51049;45.046;38.950;2023-07-24T12:23:27;32.79;37.13
64638;HTU21D;51049;45.046;38.950;2023-07-24T12:25:53;33.16;35.98
64638;HTU21D;51049;45.046;38.950;2023-07-24T12:28:19;33.07;35.88
64638;HTU21D;51049;45.046;38.950;2023-07-24T12:30:45;33.44;35.85
64638;HTU21D;51049;45.046;38.950;2023-07-24T12:33:11;34.10;34.69
64638;HTU21D;51049;45.046;38.950;2023-07-24T12:35:37;34.74;34.14
64638;HTU21D;51049;45.046;38.950;2023-07-24T12:38:03;35.55;33.79
64638;HTU21D;51049;45.046;38.950;2023-07-24T12:40:28;36.29;32.31
64638;HTU21D;51049;45.046;38.950;2023-07-24T12:42:54;36.64;31.76
64638;HTU21D;51049;45.046;38.950;2023-07-24T12:45:20;37.03;30.81
64638;HTU21D;51049;45.046;38.950;2023-07-24T12:47:46;37.25;30.58
64638;HTU21D;51049;45.046;38.950;2023-07-24T12:50:12;37.34;29.59
64638;HTU21D;51049;45.046;38.950;2023-07-24T12:52:38;37.33;29.40
64638;HTU21D;51049;45.046;38.950;2023-07-24T12:55:05;37.36;28.71
64638;HTU21D;51049;45.046;38.950;2023-07-24T12:57:31;37.04;28.93
64638;HTU21D;51049;45.046;38.950;2023-07-24T12:59:57;36.92;29.38
64638;HTU21D;51049;45.046;38.950;2023-07-24T13:02:23;36.89;29.66
64638;HTU21D;51049;45.046;38.950;2023-07-24T13:04:49;37.16;29.47
64638;HTU21D;51049;45.046;38.950;2023-07-24T13:07:15;37.62;29.18
64638;HTU21D;51049;45.046;38.950;2023-07-24T13:09:41;37.82;28.37
64638;HTU21D;51049;45.046;38.950;2023-07-24T13:12:07;37.56;28.80
64638;HTU21D;51049;45.046;38.950;2023-07-24T13:14:33;36.80;29.45
64638;HTU21D;51049;45.046;38.950;2023-07-24T13:16:59;35.87;30.65
64638;HTU21D;51049;45.046;38.950;2023-07-24T13:19:25;35.23;31.70
64638;HTU21D;51049;45.046;38.950;2023-07-24T13:21:51;35.34;31.91
64638;HTU21D;51049;45.046;38.950;2023-07-24T13:24:17;35.75;31.31
64638;HTU21D;51049;45.046;38.950;2023-07-24T13:26:43;36.19;30.96
64638;HTU21D;51049;45.046;38.950;2023-07-24T13:29:09;36.51;30.54
64638;HTU21D;51049;45.046;38.950;2023-07-24T13:31:35;36.61;30.06
64638;HTU21D;51049;45.046;38.950;2023-07-24T13:34:02;35.96;30.50
64638;HTU21D;51049;45.046;38.950;2023-07-24T13:36:28;35.22;31.40
64638;HTU21D;51049;45.046;38.950;2023-07-24T13:38:54;35.01;32.07
64638;HTU21D;51049;45.046;38.950;2023-07-24T13:41:20;35.38;31.92
64638;HTU21D;51049;45.046;38.950;2023-07-24T13:43:46;35.82;31.27
64638;HTU21D;51049;45.046;38.950;2023-07-24T13:46:13;35.70;31.09
64638;HTU21D;51049;45.046;38.950;2023-07-24T13:48:39;35.54;31.36
64638;HTU21D;51049;45.046;38.950;2023-07-24T13:51:05;34.89;32.03
64638;HTU21D;51049;45.046;38.950;2023-07-24T13:53:30;33.88;33.41
64638;HTU21D;51049;45.046;38.950;2023-07-24T13:55:56;33.11;34.50
64638;HTU21D;51049;45.046;38.950;2023-07-24T13:58:22;32.59;35.43
64638;HTU21D;51049;45.046;38.950;2023-07-24T14:00:48;32.15;36.05
64638;HTU21D;51049;45.046;38.950;2023-07-24T14:03:14;32.27;36.22
64638;HTU21D;51049;45.046;38.950;2023-07-24T14:05:42;32.86;35.47
64638;HTU21D;51049;45.046;38.950;2023-07-24T14:08:08;33.52;34.54
64638;HTU21D;51049;45.046;38.950;2023-07-24T14:10:34;34.07;33.97
64638;HTU21D;51049;45.046;38.950;2023-07-24T14:13:01;34.17;33.89
64638;HTU21D;51049;45.046;38.950;2023-07-24T14:15:28;34.03;34.10
64638;HTU21D;51049;45.046;38.950;2023-07-24T14:17:54;33.80;34.33
64638;HTU21D;51049;45.046;38.950;2023-07-24T14:20:20;33.73;34.33
64638;HTU21D;51049;45.046;38.950;2023-07-24T14:22:46;33.49;34.70
64638;HTU21D;51049;45.046;38.950;2023-07-24T14:25:12;33.49;34.75
64638;HTU21D;51049;45.046;38.950;2023-07-24T14:27:38;33.80;34.63
64638;HTU21D;51049;45.046;38.950;2023-07-24T14:30:05;34.21;34.12
64638;HTU21D;51049;45.046;38.950;2023-07-24T14:32:31;34.47;33.70
64638;HTU21D;51049;45.046;38.950;2023-07-24T14:34:58;34.65;33.47
64638;HTU21D;51049;45.046;38.950;2023-07-24T14:37:24;34.70;33.27
64638;HTU21D;51049;45.046;38.950;2023-07-24T14:39:50;34.64;33.38
64638;HTU21D;51049;45.046;38.950;2023-07-24T14:42:16;34.68;33.25
64638;HTU21D;51049;45.046;38.950;2023-07-24T14:44:42;34.67;33.18
64638;HTU21D;51049;45.046;38.950;2023-07-24T14:47:08;34.74;33.13
64638;HTU21D;51049;45.046;38.950;2023-07-24T14:49:34;34.75;33.21
64638;HTU21D;51049;45.046;38.950;2023-07-24T14:52:00;34.44;33.45
64638;HTU21D;51049;45.046;38.950;2023-07-24T14:54:26;34.23;33.91
64638;HTU21D;51049;45.046;38.950;2023-07-24T14:56:52;34.24;33.83
64638;HTU21D;51049;45.046;38.950;2023-07-24T14:59:18;34.25;33.54
64638;HTU21D;51049;45.046;38.950;2023-07-24T15:01:44;34.02;33.79
64638;HTU21D;51049;45.046;38.950;2023-07-24T15:04:09;33.92;34.05
64638;HTU21D;51049;45.046;38.950;2023-07-24T15:06:35;33.80;34.08